createdAt,value
2022-08-04T00:00:48.656Z,6.40
2022-08-04T00:04:53.688Z,7.20
2022-08-04T00:08:58.682Z,8.80
2022-08-04T00:13:03.120Z,6.27
2022-08-04T00:17:06.087Z,7.50
2022-08-04T00:21:11.147Z,6.47
2022-08-04T00:25:15.991Z,6.20
2022-08-04T00:29:18.319Z,6.10
2022-08-04T00:33:20.247Z,11.13
2022-08-04T00:37:23.343Z,8.50
2022-08-04T00:41:56.348Z,6.43
2022-08-04T00:46:11.678Z,7.93
2022-08-04T00:50:30.055Z,7.63
2022-08-04T00:54:49.846Z,9.13
2022-08-04T00:59:11.667Z,7.17
2022-08-04T01:03:19.613Z,6.90
2022-08-04T01:07:56.443Z,8.53
2022-08-04T01:12:16.562Z,7.90
2022-08-04T01:16:21.590Z,8.20
2022-08-04T01:20:25.507Z,7.50
2022-08-04T01:24:47.457Z,9.70
2022-08-04T01:29:09.191Z,6.97
2022-08-04T01:33:13.224Z,7.60
2022-08-04T01:37:49.171Z,12.73
2022-08-04T01:41:57.830Z,8.70
2022-08-04T01:45:59.265Z,7.90
2022-08-04T01:50:10.289Z,9.00
2022-08-04T01:54:15.235Z,8.80
2022-08-04T01:58:18.847Z,8.47
2022-08-04T02:02:25.155Z,9.80
2022-08-04T02:06:36.240Z,8.67
2022-08-04T02:11:02.369Z,9.27
2022-08-04T02:15:07.382Z,9.33
2022-08-04T02:19:24.080Z,10.13
2022-08-04T02:23:32.218Z,9.37
2022-08-04T02:28:05.995Z,8.83
2022-08-04T02:32:10.947Z,9.17
2022-08-04T02:36:21.741Z,9.10
2022-08-04T02:40:25.811Z,9.60
2022-08-04T02:44:28.417Z,9.40
2022-08-04T02:48:31.789Z,9.27
2022-08-04T02:52:34.664Z,9.17
2022-08-04T02:56:38.895Z,8.77
2022-08-04T03:00:40.992Z,12.63
2022-08-04T03:04:55.069Z,8.90
2022-08-04T03:09:23.161Z,9.10
2022-08-04T03:13:46.496Z,11.17
2022-08-04T03:18:08.406Z,11.13
2022-08-04T03:22:19.324Z,9.03
2022-08-04T03:26:42.258Z,10.27
2022-08-04T03:31:05.151Z,8.73
2022-08-04T03:35:22.768Z,10.00
2022-08-04T03:39:55.708Z,10.40
2022-08-04T03:44:18.926Z,9.60
2022-08-04T03:48:47.157Z,9.13
2022-08-04T03:53:10.453Z,9.57
2022-08-04T03:57:24.597Z,12.87
2022-08-04T04:02:01.539Z,10.10
2022-08-04T04:06:02.122Z,10.33
2022-08-04T04:10:30.770Z,10.00
2022-08-04T04:14:38.745Z,8.60
2022-08-04T04:19:13.002Z,9.90
2022-08-04T04:23:27.365Z,10.97
2022-08-04T04:28:44.204Z,13.00
2022-08-04T04:32:33.176Z,9.00
2022-08-04T04:36:53.472Z,9.23
2022-08-04T04:41:15.222Z,9.70
2022-08-04T04:45:34.899Z,8.67
2022-08-04T04:49:49.172Z,8.53
2022-08-04T04:54:02.991Z,8.03
2022-08-04T04:58:04.842Z,8.27
2022-08-04T05:02:25.254Z,8.60
2022-08-04T05:06:36.133Z,9.13
2022-08-04T05:11:16.653Z,8.70
2022-08-04T05:15:23.874Z,7.80
2022-08-04T05:19:35.119Z,7.80
2022-08-04T05:23:40.061Z,7.80
2022-08-04T05:27:44.972Z,9.03
2022-08-04T05:31:49.908Z,7.47
2022-08-04T05:36:21.069Z,8.73
2022-08-04T05:40:08.697Z,8.47
2022-08-04T05:44:10.648Z,7.63
2022-08-04T05:48:12.683Z,11.10
2022-08-04T05:52:15.028Z,7.93
2022-08-04T05:56:17.200Z,8.40
2022-08-04T06:00:38.963Z,9.30
2022-08-04T06:04:25.715Z,8.20
2022-08-04T06:08:28.652Z,9.03
2022-08-04T06:12:39.715Z,8.63
2022-08-04T06:16:46.022Z,7.97
2022-08-04T06:20:50.132Z,7.60
2022-08-04T06:24:54.550Z,8.30
2022-08-04T06:28:56.754Z,7.63
2022-08-04T06:33:03.590Z,7.03
2022-08-04T06:37:06.726Z,7.30
2022-08-04T06:41:08.675Z,10.00
2022-08-04T06:45:11.839Z,6.20
2022-08-04T06:49:13.969Z,10.57
2022-08-04T06:53:16.571Z,7.53
2022-08-04T06:57:21.427Z,7.87
2022-08-04T07:01:25.856Z,8.43
2022-08-04T07:05:27.677Z,7.47
2022-08-04T07:09:30.412Z,8.73
2022-08-04T07:13:32.754Z,5.70
2022-08-04T07:17:38.296Z,6.03
2022-08-04T07:21:39.535Z,7.10
2022-08-04T07:25:59.570Z,6.03
2022-08-04T07:29:46.796Z,5.63
2022-08-04T07:33:48.598Z,6.63
2022-08-04T07:37:51.666Z,5.83
2022-08-04T07:41:54.183Z,5.00
2022-08-04T07:45:55.616Z,4.67
2022-08-04T07:49:58.195Z,5.03
2022-08-04T07:54:00.283Z,4.27
2022-08-04T07:58:01.469Z,4.60
2022-08-04T08:02:03.407Z,4.20
2022-08-04T08:06:30.902Z,4.33
2022-08-04T08:10:13.816Z,13.70
2022-08-04T08:14:16.661Z,4.40
2022-08-04T08:18:17.870Z,3.80
2022-08-04T08:22:19.094Z,3.83
2022-08-04T08:26:20.444Z,5.87
2022-08-04T08:30:21.775Z,3.37
2022-08-04T08:34:27.908Z,3.83
2022-08-04T08:38:39.011Z,5.33
2022-08-04T08:43:59.962Z,3.30
2022-08-04T08:48:06.374Z,3.63
2022-08-04T08:51:46.826Z,4.93
2022-08-04T08:56:07.458Z,3.83
2022-08-04T09:00:21.579Z,4.10
2022-08-04T09:04:43.656Z,5.13
2022-08-04T09:09:19.360Z,3.70
2022-08-04T09:13:33.145Z,5.03
2022-08-04T09:17:44.903Z,6.03
2022-08-04T09:22:08.416Z,4.77
2022-08-04T09:26:27.459Z,5.60
2022-08-04T09:30:32.508Z,4.13
2022-08-04T09:34:40.547Z,6.07
2022-08-04T09:39:04.024Z,4.80
2022-08-04T09:43:19.759Z,6.93
2022-08-04T09:47:39.127Z,8.00
2022-08-04T09:51:57.613Z,5.00
2022-08-04T09:56:16.780Z,5.43
2022-08-04T10:00:20.111Z,5.90
2022-08-04T10:04:25.932Z,5.50
2022-08-04T10:08:37.112Z,5.83
2022-08-04T10:12:57.543Z,5.50
2022-08-04T10:17:08.057Z,9.50
2022-08-04T10:21:27.806Z,6.20
2022-08-04T10:26:06.816Z,5.20
2022-08-04T10:30:10.044Z,5.40
2022-08-04T10:34:13.758Z,5.47
2022-08-04T10:38:50.982Z,3.90
2022-08-04T10:43:01.605Z,4.10
2022-08-04T10:47:21.937Z,4.40
2022-08-04T10:51:57.777Z,5.03
2022-08-04T10:56:06.299Z,4.37
2022-08-04T11:00:15.097Z,3.73
2022-08-04T11:04:36.747Z,4.40
2022-08-04T11:08:44.896Z,4.47
2022-08-04T11:12:48.697Z,4.80
2022-08-04T11:17:11.657Z,6.10
2022-08-04T11:21:28.513Z,3.93
2022-08-04T11:25:36.523Z,3.10
2022-08-04T11:30:03.119Z,4.20
2022-08-04T11:34:15.249Z,4.33
2022-08-04T11:38:37.433Z,3.47
2022-08-04T11:42:43.037Z,4.07
2022-08-04T11:46:47.992Z,6.80
2022-08-04T11:50:53.936Z,2.80
2022-08-04T11:54:57.745Z,3.40
2022-08-04T11:59:00.338Z,4.73
2022-08-04T12:03:21.885Z,3.53
2022-08-04T12:07:40.534Z,3.90
2022-08-04T12:12:02.639Z,3.63
2022-08-04T12:16:30.450Z,3.03
2022-08-04T12:20:40.471Z,4.20
2022-08-04T12:24:54.245Z,4.10
2022-08-04T12:29:10.562Z,2.90
2022-08-04T12:33:17.677Z,3.13
2022-08-04T12:37:24.419Z,3.53
2022-08-04T12:41:28.986Z,3.40
2022-08-04T12:45:31.512Z,3.23
2022-08-04T12:49:36.456Z,3.50
2022-08-04T12:53:51.217Z,4.63
2022-08-04T12:57:48.951Z,7.03
2022-08-04T13:02:07.162Z,3.13
2022-08-04T13:05:55.098Z,2.80
2022-08-04T13:09:59.240Z,2.90
2022-08-04T13:14:24.742Z,2.80
2022-08-04T13:18:14.660Z,2.97
2022-08-04T13:22:18.449Z,3.53
2022-08-04T13:26:43.430Z,2.73
2022-08-04T13:30:25.746Z,5.00
2022-08-04T13:34:28.809Z,3.87
2022-08-04T13:38:33.031Z,2.87
2022-08-04T13:42:36.057Z,4.43
2022-08-04T13:46:52.768Z,3.20
2022-08-04T13:50:54.284Z,3.00
2022-08-04T13:54:55.515Z,5.23
2022-08-04T13:59:01.538Z,3.80
2022-08-04T14:03:19.115Z,4.77
2022-08-04T14:07:26.672Z,3.20
2022-08-04T14:12:10.704Z,7.77
2022-08-04T14:16:01.408Z,4.60
2022-08-04T14:19:50.034Z,4.20
2022-08-04T14:23:54.447Z,4.87
2022-08-04T14:27:56.683Z,4.30
2022-08-04T14:32:05.560Z,3.87
2022-08-04T14:36:07.247Z,3.23
2022-08-04T14:40:29.383Z,3.77
2022-08-04T14:44:17.112Z,4.53
2022-08-04T14:48:18.370Z,3.40
2022-08-04T14:52:24.801Z,3.83
2022-08-04T14:56:46.125Z,3.07
2022-08-04T15:00:33.508Z,4.40
2022-08-04T15:04:35.734Z,4.17
2022-08-04T15:08:37.155Z,3.70
2022-08-04T15:12:38.670Z,3.13
2022-08-04T15:16:54.247Z,3.53
2022-08-04T15:20:43.105Z,3.60
2022-08-04T15:24:44.332Z,4.50
2022-08-04T15:28:53.962Z,4.27
2022-08-04T15:32:59.713Z,4.00
2022-08-04T15:37:06.153Z,3.60
2022-08-04T15:41:29.607Z,8.03
2022-08-04T15:46:02.079Z,3.40
2022-08-04T15:49:39.288Z,3.30
2022-08-04T15:54:03.618Z,3.77
2022-08-04T15:58:05.788Z,3.17
2022-08-04T16:02:30.951Z,5.00
2022-08-04T16:06:39.552Z,3.20
2022-08-04T16:10:43.187Z,4.37
2022-08-04T16:14:44.424Z,4.73
2022-08-04T16:18:45.666Z,3.93
2022-08-04T16:22:50.805Z,3.37
2022-08-04T16:26:57.257Z,4.47
2022-08-04T16:31:02.092Z,3.57
2022-08-04T16:35:06.318Z,3.50
2022-08-04T16:39:11.381Z,7.77
2022-08-04T16:43:18.376Z,3.20
2022-08-04T16:47:23.407Z,4.00
2022-08-04T16:51:28.347Z,6.33
2022-08-04T16:55:29.464Z,3.97
2022-08-04T16:59:30.689Z,4.40
2022-08-04T17:03:32.045Z,5.23
2022-08-04T17:08:19.566Z,4.97
2022-08-04T17:11:58.287Z,3.60
2022-08-04T17:16:02.725Z,3.10
2022-08-04T17:20:05.071Z,3.70
2022-08-04T17:24:15.195Z,6.10
2022-08-04T17:28:26.261Z,4.20
2022-08-04T17:32:15.440Z,3.70
2022-08-04T17:36:17.598Z,3.93
2022-08-04T17:40:25.524Z,3.87
2022-08-04T17:44:36.980Z,6.53
2022-08-04T17:48:40.528Z,4.87
2022-08-04T17:52:45.144Z,4.43
2022-08-04T17:56:51.850Z,5.93
2022-08-04T18:05:10.762Z,6.03
2022-08-04T18:09:22.814Z,6.30
2022-08-04T18:13:14.080Z,5.00
2022-08-04T18:18:22.088Z,3.97
2022-08-04T18:21:46.606Z,4.23
2022-08-04T18:25:52.615Z,4.97
2022-08-04T18:30:14.849Z,5.37
2022-08-04T18:33:59.030Z,4.20
2022-08-04T18:38:05.487Z,7.13
2022-08-04T18:42:01.211Z,6.17
2022-08-04T18:46:01.813Z,4.67
2022-08-04T18:51:00.347Z,5.13
2022-08-04T18:54:07.655Z,6.70
2022-08-04T18:58:11.736Z,5.73
2022-08-04T19:02:17.393Z,5.03
2022-08-04T19:06:17.665Z,4.47
2022-08-04T19:10:26.516Z,6.37
2022-08-04T19:14:24.022Z,5.20
2022-08-04T19:18:26.260Z,11.73
2022-08-04T19:22:35.864Z,5.77
2022-08-04T19:26:33.127Z,5.30
2022-08-04T19:30:34.370Z,4.30
2022-08-04T19:34:35.992Z,5.97
2022-08-04T19:38:38.032Z,7.17
2022-08-04T19:42:40.452Z,7.07
2022-08-04T19:46:43.790Z,7.03
2022-08-04T19:50:45.014Z,4.10
2022-08-04T19:54:46.442Z,4.10
2022-08-04T19:58:49.493Z,7.63
2022-08-04T20:02:50.704Z,4.30
2022-08-04T20:06:53.447Z,4.20
2022-08-04T20:10:55.152Z,4.60
2022-08-04T20:14:56.410Z,5.33
2022-08-04T20:19:03.169Z,4.33
2022-08-04T20:23:01.843Z,4.90
2022-08-04T20:27:08.823Z,6.03
2022-08-04T20:31:07.983Z,5.27
2022-08-04T20:35:15.678Z,4.40
2022-08-04T20:39:12.400Z,4.70
2022-08-04T20:43:15.389Z,4.07
2022-08-04T20:47:17.013Z,4.17
2022-08-04T20:51:19.548Z,4.47
2022-08-04T20:55:22.569Z,5.50
2022-08-04T20:59:25.308Z,3.80
2022-08-04T21:11:35.381Z,5.40
2022-08-04T21:15:58.003Z,5.13
2022-08-04T21:19:40.530Z,4.13
2022-08-04T21:23:43.549Z,5.83
2022-08-04T21:27:44.785Z,4.70
2022-08-04T21:31:50.202Z,5.33
2022-08-04T21:35:54.203Z,5.97
2022-08-04T21:39:59.362Z,4.33
2022-08-04T21:43:58.988Z,5.67
2022-08-04T21:48:00.272Z,5.00
2022-08-04T21:52:07.358Z,4.10
2022-08-04T21:56:08.215Z,4.10
2022-08-04T22:00:11.029Z,4.50
2022-08-04T22:04:12.080Z,5.20
2022-08-04T22:08:19.660Z,9.90
2022-08-04T22:12:20.972Z,5.87
2022-08-04T22:16:19.851Z,6.17
2022-08-04T22:20:27.930Z,5.50
2022-08-04T22:24:26.149Z,5.63
2022-08-04T22:28:29.195Z,4.03
2022-08-04T22:32:30.403Z,4.50
2022-08-04T22:36:31.556Z,5.60
2022-08-04T22:40:33.862Z,6.70
2022-08-04T22:44:36.579Z,8.60
2022-08-04T22:48:39.309Z,6.47
2022-08-04T22:52:56.053Z,4.97
2022-08-04T22:56:45.665Z,5.80
2022-08-04T23:00:52.015Z,8.17
2022-08-04T23:04:54.087Z,5.23
2022-08-04T23:08:53.552Z,6.27
2022-08-04T23:12:54.844Z,4.90
2022-08-04T23:16:56.309Z,5.73
2022-08-04T23:20:57.741Z,7.47
2022-08-04T23:24:58.972Z,5.33
2022-08-04T23:29:03.684Z,8.87
2022-08-04T23:33:05.151Z,9.37
2022-08-04T23:37:06.562Z,6.77
2022-08-04T23:41:13.303Z,7.47
2022-08-04T23:45:14.913Z,5.73
2022-08-04T23:49:17.955Z,8.67
2022-08-04T23:53:22.715Z,6.20
2022-08-04T23:57:23.315Z,5.40
